De Beque, CO (81630)

10:29 AM MDT on October 02, 2014 (GMT -0600)
CODOT DeBeque Canyon (7) | Change Station
CLOSE
Current Station
Personal Weather Station
Location: De Beque, CO
Elevation: 4792 ft
Nearby Weather Stations

Elev 4792 ft 39.24 °N, 108.27 °W | Updated 55 minutes ago

Clear
Clear
47 °F
Feels Like 47 °F
N
0
Wind Variable Wind from East
Gusts 4.0 mph

Today
High -- | Low -- °F
--% Chance of Precip.
Yesterday
High -- | Low -- °F
Precip. -- in
7:09 AM 6:53 PM
First Quarter, 60% visible
Pressure 30.27 in
Visibility 10.0 miles
Clouds Clear
Windchill 47 °F
Dew Point 40 °F
Humidity 78%
Rainfall -999.00 in
Snow Depth 0 in , 0 in , 0 in
UV 3 out of 12
Pollen 3.50 out of 12
Air Quality Not available.
Flu Activity Not available.
METAR KGJT 021553Z 14006KT 10SM CLR 08/04 A3032 RMK AO2 SLP251 T00780039

More Conditions Fewer Conditions

Pressure 30.27 in
Visibility 10.0 miles
Clouds Clear
Windchill 47 °F
Dew Point 40 °F
Humidity 78%
Rainfall -999.00 in
Snow Depth 0 in , 0 in , 0 in
UV 3 out of 12
Pollen 3.50 out of 12
Air Quality Not available.
Flu Activity Not available.
METAR KGJT 021553Z 14006KT 10SM CLR 08/04 A3032 RMK AO2 SLP251 T00780039

More Conditions Fewer Conditions

10-Day Weather Forecast

Almanac

Astronomy

Oct. 02, 2014 Rise Set
Actual Time 7:09 AM MDT 6:53 PM MDT
Civil Twilight 6:43 AM MDT 7:20 PM MDT
Nautical Twilight 6:12 AM MDT 7:51 PM MDT
Astronomical Twilight 5:40 AM MDT 8:22 PM MDT
Moon 3:00 PM MDT 12:31 AM MDT
Length of Visible Light 12h 37m
Length of Day
11h 43m
Tomorrow will be 2m 32s shorter.
First Quarter, 60% of the Moon is Illuminated
Today
First Quarter
Oct 8
Full
Oct 15
Last Quarter
Oct 23
New
Oct 30
First Quarter

Today's Extremes

State Highs State Lows

Community

WunderPhotos

Upload Photos

1,758,290 photos uploaded!

WunderBlogs® & News

Nearby

Snow Depth

Station Depth Elevation
Elk River 0 in 8700 ft
Medano Pass 0 in 9620 ft
Overland Reservoir 0 in 9880 ft
Bear RIver 0 in 9080 ft
Grayback 1 in 11620 ft

Earthquake Activity

City Distance Mag. Time & Date
No recent earthquake activity has been reported nearby.
Minimum magnitude displayed is 2.5.

Coastal Water Temperatures

Place Temperature
No Stations Reporting

Nearby Weather Stations